Time;durP1;ratioP1;P1;durP2;ratioP2;P2;SDS_P1;SDS_P2;PMS_P1;PMS_P2;Temp;Humidity;BMP_temperature;BMP_pressure;BME280_temperature;BME280_humidity;BME280_pressure;Samples;Min_cycle;Max_cycle;Signal;HPM_P1;HPM_P2
2023/02/05 00:00:42;;;;;;;6.00;2.90;;;;;;;-5.07;73.79;99596.56;105569;1254;61572;-25
2023/02/05 00:03:11;;;;;;;3.60;1.80;;;;;;;-5.28;74.42;99605.20;105479;1254;75399;-26
2023/02/05 00:05:41;;;;;;;4.70;2.60;;;;;;;-5.37;75.01;99610.02;105553;1257;75487;-25
2023/02/05 00:08:09;;;;;;;4.60;2.70;;;;;;;-5.35;75.64;99605.59;105459;1260;74300;-26
2023/02/05 00:10:38;;;;;;;2.50;1.80;;;;;;;-5.41;76.36;99606.98;105680;1259;62481;-26
2023/02/05 00:13:07;;;;;;;2.50;1.50;;;;;;;-4.93;75.28;99596.77;105538;1259;61550;-25
2023/02/05 00:15:39;;;;;;;1.90;1.40;;;;;;;-4.72;73.89;99604.02;105498;1261;75148;-26
2023/02/05 00:18:08;;;;;;;3.90;1.90;;;;;;;-4.69;73.49;99601.45;105484;1254;75971;-25
2023/02/05 00:20:37;;;;;;;3.20;1.80;;;;;;;-4.76;73.98;99604.06;105525;1257;74173;-26
2023/02/05 00:23:06;;;;;;;2.30;1.70;;;;;;;-4.93;74.22;99604.73;105522;1254;62101;-25
2023/02/05 00:25:34;;;;;;;3.50;2.00;;;;;;;-5.21;75.29;99605.64;105607;1257;61562;-26
2023/02/05 00:28:03;;;;;;;3.70;2.00;;;;;;;-5.35;76.19;99606.27;105688;1257;75947;-25
2023/02/05 00:30:32;;;;;;;1.70;1.30;;;;;;;-5.42;76.45;99605.13;105720;1256;75742;-25
2023/02/05 00:33:00;;;;;;;4.50;2.00;;;;;;;-5.29;76.39;99603.67;105615;1254;73253;-27
2023/02/05 00:35:29;;;;;;;3.30;2.30;;;;;;;-4.77;75.19;99603.39;105593;1254;61102;-26
2023/02/05 00:37:58;;;;;;;5.40;3.00;;;;;;;-4.61;74.41;99599.16;105632;1257;61606;-25
2023/02/05 00:40:27;;;;;;;2.50;1.80;;;;;;;-4.60;73.94;99596.78;105770;1254;75050;-26
2023/02/05 00:42:56;;;;;;;1.50;1.30;;;;;;;-4.74;74.19;99591.17;105674;1258;76109;-25
2023/02/05 00:45:25;;;;;;;3.20;1.80;;;;;;;-4.99;74.94;99594.12;105680;1254;74374;-25
2023/02/05 00:47:53;;;;;;;2.30;1.60;;;;;;;-5.07;75.79;99599.94;105730;1257;61052;-25
2023/02/05 00:50:22;;;;;;;2.60;1.60;;;;;;;-5.26;76.60;99602.97;105712;1260;61969;-26
2023/02/05 00:52:51;;;;;;;3.90;2.10;;;;;;;-5.31;77.01;99608.95;105751;1257;75633;-25
2023/02/05 00:55:20;;;;;;;9.60;2.20;;;;;;;-5.07;76.67;99610.43;105600;1254;75650;-25
2023/02/05 00:57:49;;;;;;;7.60;2.80;;;;;;;-4.82;75.10;99609.88;105541;1254;73283;-26
2023/02/05 01:00:18;;;;;;;6.40;3.30;;;;;;;-4.81;74.91;99612.24;105503;1257;61049;-26
2023/02/05 01:02:46;;;;;;;19.10;8.20;;;;;;;-4.97;75.48;99610.35;105555;1257;61808;-25
2023/02/05 01:05:15;;;;;;;21.30;5.80;;;;;;;-5.51;78.50;99602.83;105511;1254;75371;-25
2023/02/05 01:07:44;;;;;;;22.90;8.20;;;;;;;-5.65;79.37;99602.75;105505;1254;75863;-25
2023/02/05 01:10:12;;;;;;;23.90;9.00;;;;;;;-5.69;79.63;99603.27;105518;1257;73970;-25
2023/02/05 01:12:40;;;;;;;7.70;3.20;;;;;;;-5.49;79.68;99606.38;105662;1254;63270;-26
2023/02/05 01:15:11;;;;;;;5.30;2.20;;;;;;;-4.81;78.18;99604.45;105550;1257;61602;-26
2023/02/05 01:17:40;;;;;;;3.80;2.50;;;;;;;-4.76;76.39;99606.95;105575;1255;75101;-25
2023/02/05 01:20:11;;;;;;;4.20;2.50;;;;;;;-5.16;74.93;99610.52;105652;1254;74859;-26
2023/02/05 01:22:40;;;;;;;3.20;2.30;;;;;;;-5.32;74.77;99607.42;105238;1261;74636;-25
2023/02/05 01:25:08;;;;;;;5.00;3.00;;;;;;;-5.45;75.14;99611.08;105528;1255;61067;-26
2023/02/05 01:27:37;;;;;;;6.10;2.10;;;;;;;-5.64;75.14;99611.36;105657;1257;61576;-26
2023/02/05 01:30:06;;;;;;;3.00;1.70;;;;;;;-5.73;75.11;99617.52;105536;1254;75152;-26
2023/02/05 01:32:35;;;;;;;4.90;3.10;;;;;;;-5.89;75.61;99616.59;105400;1261;74914;-25
2023/02/05 01:35:03;;;;;;;8.50;3.60;;;;;;;-6.04;75.59;99612.63;105472;1254;74173;-26
2023/02/05 01:37:32;;;;;;;4.20;1.90;;;;;;;-5.79;74.47;99609.09;105607;1260;61247;-25
2023/02/05 01:40:00;;;;;;;3.80;2.60;;;;;;;-5.33;72.52;99611.00;105547;1254;61490;-26
2023/02/05 01:42:30;;;;;;;3.00;1.70;;;;;;;-5.44;72.05;99609.38;105551;1254;75195;-26
2023/02/05 01:45:31;;;;;;;4.60;2.30;;;;;;;-5.45;71.80;99606.84;105542;1254;74624;-26
2023/02/05 01:48:02;;;;;;;13.50;6.30;;;;;;;-5.76;72.92;99604.50;105639;1254;74369;-26
2023/02/05 01:50:53;;;;;;;16.20;7.30;;;;;;;-6.13;74.40;99603.71;105407;1262;62225;-26
2023/02/05 01:53:26;;;;;;;10.30;5.00;;;;;;;-6.25;75.47;99604.44;105551;1254;61176;-25
2023/02/05 01:56:00;;;;;;;7.10;4.20;;;;;;;-6.34;75.65;99607.01;105665;1260;75065;-25
2023/02/05 01:58:31;;;;;;;3.60;1.90;;;;;;;-6.18;75.83;99609.81;105516;1254;75871;-26
2023/02/05 02:00:59;;;;;;;2.10;1.50;;;;;;;-5.95;74.41;99619.82;105437;1254;74142;-26
2023/02/05 02:03:28;;;;;;;2.40;1.80;;;;;;;-5.87;73.66;99621.31;105608;1254;61067;-26
2023/02/05 02:05:57;;;;;;;3.10;1.70;;;;;;;-5.97;73.21;99624.59;105479;1253;61078;-25
2023/02/05 02:08:25;;;;;;;3.20;1.90;;;;;;;-6.18;73.50;99629.94;105522;1254;75350;-26
2023/02/05 02:10:54;;;;;;;3.90;1.90;;;;;;;-6.37;74.33;99631.68;105491;1260;74917;-25
2023/02/05 02:13:23;;;;;;;2.40;1.50;;;;;;;-6.51;74.09;99630.88;105465;1254;74215;-26
2023/02/05 02:15:52;;;;;;;3.90;2.00;;;;;;;-6.51;74.38;99630.37;105505;1254;61336;-26
2023/02/05 02:18:25;;;;;;;3.80;2.30;;;;;;;-6.50;74.63;99626.31;105632;1255;61862;-26
2023/02/05 02:21:13;;;;;;;2.80;2.00;;;;;;;-6.04;74.50;99629.17;105721;1254;75384;-26
2023/02/05 02:24:21;;;;;;;1.40;1.20;;;;;;;-5.78;73.02;99629.89;105429;1260;76334;-26
2023/02/05 02:26:56;;;;;;;2.70;1.50;;;;;;;-5.81;73.11;99639.36;105292;1260;72921;-25
2023/02/05 02:29:54;;;;;;;2.80;2.10;;;;;;;-5.79;72.75;99630.05;105452;1255;61106;-26
2023/02/05 02:32:34;;;;;;;2.20;1.60;;;;;;;-6.12;73.40;99627.20;105456;1260;61886;-26
2023/02/05 02:35:15;;;;;;;4.40;1.90;;;;;;;-6.26;73.64;99627.77;105624;1254;75155;-26
2023/02/05 02:38:13;;;;;;;2.50;1.90;;;;;;;-6.57;74.20;99624.13;105618;1254;75578;-25
2023/02/05 02:40:53;;;;;;;1.80;1.20;;;;;;;-6.46;74.03;99622.08;105481;1260;74108;-25
2023/02/05 02:43:47;;;;;;;3.10;1.80;;;;;;;-6.05;73.07;99626.83;105525;1257;61179;-26
2023/02/05 02:46:20;;;;;;;3.00;2.00;;;;;;;-5.94;72.73;99626.58;105498;1257;61779;-26
2023/02/05 02:48:50;;;;;;;4.10;2.30;;;;;;;-6.16;73.53;99628.75;105486;1259;75315;-26
2023/02/05 02:51:19;;;;;;;3.10;2.20;;;;;;;-6.23;74.09;99629.44;105500;1254;74724;-26
2023/02/05 02:53:49;;;;;;;3.00;1.70;;;;;;;-6.30;75.11;99631.83;105654;1254;74027;-25
2023/02/05 02:56:18;;;;;;;4.30;2.20;;;;;;;-6.35;75.00;99630.15;105639;1254;61943;-26
2023/02/05 02:58:54;;;;;;;3.10;2.30;;;;;;;-6.35;75.55;99628.13;105555;1257;61074;-26
2023/02/05 03:01:24;;;;;;;4.10;1.90;;;;;;;-6.17;75.48;99636.01;105630;1260;74311;-26
2023/02/05 03:03:56;;;;;;;3.10;2.50;;;;;;;-5.59;73.93;99637.23;105485;1254;75909;-26
2023/02/05 03:06:25;;;;;;;4.70;3.10;;;;;;;-5.79;74.83;99639.02;105371;1260;72881;-26
2023/02/05 03:09:03;;;;;;;4.90;3.00;;;;;;;-5.84;75.21;99642.93;105544;1259;61068;-25
2023/02/05 03:11:33;;;;;;;1.60;1.20;;;;;;;-6.05;76.20;99646.61;105446;1259;61542;-26
2023/02/05 03:14:02;;;;;;;3.00;2.10;;;;;;;-5.99;76.52;99642.67;105743;1254;75662;-26
2023/02/05 03:16:34;;;;;;;2.90;2.10;;;;;;;-6.11;77.20;99645.79;105643;1253;74915;-26
2023/02/05 03:19:05;;;;;;;3.30;2.20;;;;;;;-5.93;75.84;99640.10;105518;1254;73093;-26
2023/02/05 03:21:39;;;;;;;3.90;2.50;;;;;;;-5.82;75.09;99637.17;105336;1254;61042;-26
2023/02/05 03:24:08;;;;;;;3.20;2.00;;;;;;;-5.74;74.94;99639.84;105498;1254;61131;-26
2023/02/05 03:26:37;;;;;;;2.40;2.00;;;;;;;-5.74;75.17;99637.99;105592;1253;75213;-26
2023/02/05 03:29:17;;;;;;;4.20;2.20;;;;;;;-5.96;75.31;99632.85;105542;1258;74157;-26
2023/02/05 03:31:54;;;;;;;3.20;2.30;;;;;;;-6.12;76.05;99627.38;105552;1261;72908;-26
2023/02/05 03:34:57;;;;;;;4.50;2.40;;;;;;;-6.18;76.44;99638.21;105695;1254;61169;-26
2023/02/05 03:37:49;;;;;;;3.90;2.20;;;;;;;-6.06;76.63;99644.06;105711;1253;61744;-26
2023/02/05 03:40:33;;;;;;;2.80;2.10;;;;;;;-5.62;75.09;99640.95;105719;1254;75076;-26
2023/02/05 03:43:15;;;;;;;3.50;2.20;;;;;;;-5.62;74.66;99643.33;105705;1254;75585;-26
2023/02/05 03:46:03;;;;;;;4.00;2.60;;;;;;;-5.86;75.14;99638.22;105670;1254;72170;-26
2023/02/05 03:48:38;;;;;;;3.40;2.40;;;;;;;-6.03;75.71;99636.11;105686;1261;61064;-25
2023/02/05 03:51:25;;;;;;;3.40;2.50;;;;;;;-6.04;76.21;99637.81;105664;1254;61551;-26
2023/02/05 03:54:12;;;;;;;3.20;2.00;;;;;;;-6.02;76.01;99633.24;105612;1259;75439;-26
2023/02/05 03:56:50;;;;;;;2.70;2.00;;;;;;;-5.74;75.58;99637.14;105723;1253;75752;-26
2023/02/05 03:59:19;;;;;;;2.40;2.00;;;;;;;-5.56;74.74;99633.14;105441;1253;73209;-26
2023/02/05 04:01:48;;;;;;;2.10;1.70;;;;;;;-5.64;74.46;99626.26;105491;1255;61252;-26
2023/02/05 04:04:16;;;;;;;2.60;1.40;;;;;;;-5.69;75.68;99629.84;105567;1260;61853;-26
2023/02/05 04:06:46;;;;;;;2.80;1.90;;;;;;;-5.83;77.44;99637.36;105570;1254;75312;-26
2023/02/05 04:09:14;;;;;;;4.60;2.30;;;;;;;-6.09;78.89;99633.94;105642;1261;76028;-25
2023/02/05 04:11:43;;;;;;;5.70;2.50;;;;;;;-6.11;79.45;99630.41;105455;1256;74272;-25
2023/02/05 04:14:12;;;;;;;4.80;2.40;;;;;;;-6.09;80.37;99632.59;105523;1254;63530;-25
2023/02/05 04:16:41;;;;;;;2.80;1.90;;;;;;;-5.52;79.36;99632.95;105682;1257;61777;-26
2023/02/05 04:19:10;;;;;;;2.30;1.90;;;;;;;-5.47;78.53;99630.89;105553;1253;75388;-26
2023/02/05 04:21:38;;;;;;;4.50;2.70;;;;;;;-5.74;79.28;99627.17;105497;1259;75925;-25
2023/02/05 04:24:08;;;;;;;4.10;2.80;;;;;;;-5.73;80.15;99630.20;105554;1257;74224;-26
2023/02/05 04:26:36;;;;;;;2.30;2.00;;;;;;;-6.03;81.44;99632.23;105695;1254;61659;-26
2023/02/05 04:29:06;;;;;;;4.20;3.10;;;;;;;-5.89;81.91;99642.63;105639;1254;61645;-26
2023/02/05 04:31:40;;;;;;;5.10;3.50;;;;;;;-5.52;80.61;99643.10;105537;1257;75600;-26
2023/02/05 04:34:09;;;;;;;3.40;2.00;;;;;;;-5.49;80.32;99626.51;105537;1253;74826;-26
2023/02/05 04:36:38;;;;;;;3.70;2.30;;;;;;;-5.52;80.47;99625.51;105573;1253;73911;-26
2023/02/05 04:39:07;;;;;;;3.60;2.50;;;;;;;-5.63;81.18;99637.58;105584;1257;61186;-26
2023/02/05 04:41:35;;;;;;;4.20;2.90;;;;;;;-5.95;82.72;99631.33;105610;1256;61561;-26
2023/02/05 04:44:05;;;;;;;5.10;1.70;;;;;;;-5.99;83.20;99630.67;105649;1254;75191;-26
2023/02/05 04:46:34;;;;;;;3.20;2.10;;;;;;;-5.58;82.44;99636.04;105520;1253;76586;-26
2023/02/05 04:49:02;;;;;;;2.90;2.10;;;;;;;-5.39;81.68;99644.89;105528;1253;73862;-25
2023/02/05 04:51:31;;;;;;;6.10;2.70;;;;;;;-5.34;81.42;99638.59;105703;1254;61992;-26
2023/02/05 04:54:00;;;;;;;3.10;2.10;;;;;;;-5.53;82.07;99638.20;105733;1254;61660;-26
2023/02/05 04:56:29;;;;;;;5.80;3.20;;;;;;;-5.73;82.93;99639.84;105740;1253;75059;-25
2023/02/05 04:58:57;;;;;;;4.70;3.10;;;;;;;-6.13;84.46;99646.48;105528;1259;75711;-26
2023/02/05 05:01:26;;;;;;;6.70;4.10;;;;;;;-5.80;84.48;99649.18;105533;1257;74475;-26
2023/02/05 05:03:54;;;;;;;5.50;3.60;;;;;;;-5.40;83.02;99641.34;105474;1254;61189;-26
2023/02/05 05:06:23;;;;;;;6.10;3.70;;;;;;;-5.49;82.57;99648.84;105610;1253;61449;-26
2023/02/05 05:08:52;;;;;;;5.20;3.40;;;;;;;-5.69;83.53;99649.29;105710;1260;75315;-26
2023/02/05 05:11:21;;;;;;;4.60;3.40;;;;;;;-5.84;84.31;99652.58;105724;1257;75009;-26
2023/02/05 05:13:51;;;;;;;5.50;4.20;;;;;;;-5.84;84.84;99655.27;105682;1254;73966;-25
2023/02/05 05:16:19;;;;;;;4.00;2.60;;;;;;;-5.37;83.13;99653.49;105617;1252;61065;-27
2023/02/05 05:18:50;;;;;;;4.70;3.00;;;;;;;-5.28;82.06;99654.98;105612;1257;61825;-26
2023/02/05 05:21:19;;;;;;;5.50;3.10;;;;;;;-5.31;82.26;99658.21;105577;1253;75075;-26
2023/02/05 05:23:47;;;;;;;3.80;2.70;;;;;;;-5.62;83.51;99659.74;105692;1258;75995;-26
2023/02/05 05:26:16;;;;;;;7.00;4.00;;;;;;;-5.74;84.02;99658.63;105714;1254;74234;-25
2023/02/05 05:28:44;;;;;;;4.90;3.30;;;;;;;-5.72;84.16;99655.73;105719;1253;63258;-25
2023/02/05 05:31:18;;;;;;;4.60;3.40;;;;;;;-5.43;83.12;99654.73;105494;1257;61904;-26
2023/02/05 05:33:47;;;;;;;4.90;2.70;;;;;;;-5.42;82.85;99663.54;105684;1254;75424;-25
2023/02/05 05:36:15;;;;;;;5.00;3.20;;;;;;;-5.54;83.01;99668.66;105733;1254;76139;-25
2023/02/05 05:38:44;;;;;;;7.10;4.90;;;;;;;-5.68;83.87;99667.38;105584;1253;74272;-26
2023/02/05 05:44:06;;;;;;;4.80;3.80;;;;;;;-5.50;83.74;99673.04;105511;1258;61882;-26
2023/02/05 05:46:35;;;;;;;5.60;3.90;;;;;;;-5.43;83.31;99669.11;105602;1253;75485;-25
2023/02/05 05:49:03;;;;;;;5.20;3.80;;;;;;;-5.53;83.07;99674.08;105490;1254;76420;-26
2023/02/05 05:51:32;;;;;;;5.60;3.50;;;;;;;-5.55;83.50;99675.27;105499;1254;73987;-26
2023/02/05 05:54:00;;;;;;;8.00;4.10;;;;;;;-5.74;84.54;99678.07;105495;1253;61124;-26
2023/02/05 05:56:29;;;;;;;5.00;3.50;;;;;;;-5.76;85.18;99676.05;105550;1257;61276;-26
2023/02/05 05:58:58;;;;;;;4.50;3.30;;;;;;;-5.51;84.11;99681.00;105671;1254;75153;-25
2023/02/05 06:01:26;;;;;;;7.40;4.50;;;;;;;-5.16;82.81;99685.52;105648;1253;75727;-25
2023/02/05 06:03:55;;;;;;;5.40;3.30;;;;;;;-5.43;82.44;99686.37;105645;1257;73565;-25
2023/02/05 06:06:23;;;;;;;6.40;4.00;;;;;;;-5.53;83.12;99687.61;105673;1253;61147;-26
2023/02/05 06:08:52;;;;;;;6.40;4.40;;;;;;;-5.68;83.59;99693.11;105668;1254;61935;-26
2023/02/05 06:11:21;;;;;;;6.90;4.70;;;;;;;-5.46;83.60;99698.41;104341;1257;1684893;-26
2023/02/05 06:13:50;;;;;;;5.40;3.80;;;;;;;-5.34;82.44;99702.73;105484;1259;75856;-25
2023/02/05 06:16:19;;;;;;;6.20;3.50;;;;;;;-5.28;82.24;99705.23;105545;1257;74092;-26
2023/02/05 06:18:47;;;;;;;6.00;3.80;;;;;;;-5.40;82.37;99705.48;105479;1254;61227;-25
2023/02/05 06:21:16;;;;;;;5.80;4.50;;;;;;;-5.51;82.78;99701.64;105490;1253;61828;-25
2023/02/05 06:23:44;;;;;;;5.10;3.70;;;;;;;-5.56;83.44;99709.46;105507;1254;75320;-26
2023/02/05 06:26:13;;;;;;;6.90;4.00;;;;;;;-5.46;82.99;99703.98;105545;1253;75859;-25
2023/02/05 06:28:41;;;;;;;6.80;4.90;;;;;;;-5.24;82.38;99705.55;105536;1253;73191;-26
2023/02/05 06:31:10;;;;;;;6.00;4.20;;;;;;;-5.00;81.31;99699.97;105534;1255;61168;-26
2023/02/05 06:33:39;;;;;;;7.80;4.10;;;;;;;-5.34;81.41;99702.89;105717;1254;61908;-26
2023/02/05 06:36:08;;;;;;;6.70;4.70;;;;;;;-5.37;82.34;99712.39;105535;1254;75400;-26
2023/02/05 06:38:36;;;;;;;6.80;4.00;;;;;;;-5.38;82.61;99719.86;105532;1259;73718;-25
2023/02/05 06:41:05;;;;;;;6.60;4.50;;;;;;;-5.35;82.65;99720.02;105477;1254;74199;-25
2023/02/05 06:43:34;;;;;;;5.70;3.90;;;;;;;-5.19;82.41;99718.56;105592;1253;61428;-25
2023/02/05 06:46:02;;;;;;;7.40;4.90;;;;;;;-4.91;81.63;99721.59;105462;1259;61863;-25
2023/02/05 06:48:31;;;;;;;6.30;4.90;;;;;;;-5.01;81.41;99728.09;105523;1253;75139;-25
2023/02/05 06:51:00;;;;;;;9.90;4.80;;;;;;;-5.28;82.57;99724.89;105539;1258;75892;-25
2023/02/05 06:53:29;;;;;;;7.40;5.10;;;;;;;-5.17;82.60;99727.86;105526;1257;73995;-25
2023/02/05 06:55:58;;;;;;;7.70;5.30;;;;;;;-5.39;83.50;99727.48;105526;1254;63491;-25
2023/02/05 06:58:27;;;;;;;8.20;4.30;;;;;;;-5.19;83.72;99729.73;105573;1254;61688;-25
2023/02/05 07:00:55;;;;;;;7.30;5.00;;;;;;;-4.84;82.47;99732.88;105507;1253;74092;-25
2023/02/05 07:03:24;;;;;;;7.40;5.50;;;;;;;-4.79;81.67;99729.79;105499;1257;75826;-25
2023/02/05 07:05:52;;;;;;;8.00;4.90;;;;;;;-4.95;82.41;99731.78;105497;1253;74006;-25
2023/02/05 07:08:21;;;;;;;5.00;3.70;;;;;;;-4.96;82.85;99743.65;105550;1254;61131;-25
2023/02/05 07:10:50;;;;;;;10.20;5.60;;;;;;;-5.11;83.61;99741.20;105466;1259;62006;-25
2023/02/05 07:13:19;;;;;;;7.60;5.20;;;;;;;-4.71;82.81;99735.16;105526;1253;75416;-25
2023/02/05 07:15:48;;;;;;;9.90;6.40;;;;;;;-4.88;81.72;99740.53;105624;1255;75886;-25
2023/02/05 07:18:17;;;;;;;8.90;5.50;;;;;;;-5.18;82.66;99741.23;105520;1253;74019;-25
2023/02/05 07:20:45;;;;;;;7.80;5.20;;;;;;;-5.13;82.99;99741.39;105524;1253;61580;-25
2023/02/05 07:23:14;;;;;;;10.20;5.10;;;;;;;-4.93;82.27;99744.48;105551;1257;61841;-25
2023/02/05 07:25:43;;;;;;;12.30;6.70;;;;;;;-5.01;82.52;99737.92;105467;1253;75486;-25
2023/02/05 07:28:12;;;;;;;10.90;6.70;;;;;;;-4.88;81.61;99745.80;105465;1254;75860;-25
2023/02/05 07:30:40;;;;;;;7.20;5.10;;;;;;;-4.82;81.60;99754.90;105549;1253;73935;-25
2023/02/05 07:33:09;;;;;;;8.80;5.70;;;;;;;-4.73;81.62;99751.61;105477;1258;61214;-25
2023/02/05 07:35:38;;;;;;;11.50;6.80;;;;;;;-5.07;81.84;99742.37;105523;1257;61585;-25
2023/02/05 07:38:07;;;;;;;8.50;5.40;;;;;;;-5.01;82.06;99750.95;105555;1254;75327;-25
2023/02/05 07:40:36;;;;;;;10.60;6.50;;;;;;;-5.03;82.15;99748.77;105637;1253;75634;-25
2023/02/05 07:43:05;;;;;;;5.70;4.40;;;;;;;-4.57;80.93;99753.02;105322;1253;74201;-25
2023/02/05 07:45:34;;;;;;;6.70;4.20;;;;;;;-4.38;79.66;99754.04;105502;1254;61055;-25
2023/02/05 07:48:03;;;;;;;8.40;6.10;;;;;;;-4.50;80.00;99764.99;105590;1253;61097;-25
2023/02/05 07:50:32;;;;;;;8.10;5.40;;;;;;;-4.68;80.69;99765.30;105518;1254;75272;-26
2023/02/05 07:53:00;;;;;;;10.10;6.70;;;;;;;-4.82;80.87;99765.90;105621;1253;75727;-25
2023/02/05 07:55:30;;;;;;;9.40;4.90;;;;;;;-5.00;81.86;99766.19;105493;1253;74222;-25
2023/02/05 07:57:58;;;;;;;9.40;4.50;;;;;;;-4.81;81.81;99767.61;105545;1254;61106;-25
2023/02/05 08:00:27;;;;;;;8.60;5.60;;;;;;;-4.52;80.71;99772.48;105615;1255;61872;-25
2023/02/05 08:02:55;;;;;;;8.30;5.40;;;;;;;-4.44;80.25;99773.06;105718;1253;75364;-25
2023/02/05 08:05:24;;;;;;;8.40;4.80;;;;;;;-4.68;80.32;99773.77;105740;1256;75837;-25
2023/02/05 08:07:55;;;;;;;8.00;5.20;;;;;;;-4.79;81.12;99773.16;105644;1257;73992;-25
2023/02/05 08:10:24;;;;;;;8.60;6.20;;;;;;;-4.87;81.72;99768.65;105637;1253;61112;-25
2023/02/05 08:12:53;;;;;;;7.50;5.20;;;;;;;-4.78;81.54;99770.63;105627;1255;61624;-25
2023/02/05 08:15:21;;;;;;;10.30;6.00;;;;;;;-4.32;80.42;99769.73;105728;1259;74318;-25
2023/02/05 08:17:50;;;;;;;10.10;5.90;;;;;;;-4.24;79.64;99773.41;105534;1255;75602;-25
2023/02/05 08:20:19;;;;;;;6.70;4.60;;;;;;;-4.20;79.22;99773.05;105506;1253;72687;-25
2023/02/05 08:22:47;;;;;;;9.00;6.00;;;;;;;-4.39;79.75;99769.98;105643;1254;61160;-25
2023/02/05 08:25:16;;;;;;;11.50;4.90;;;;;;;-4.58;80.97;99774.71;105677;1258;61722;-25
2023/02/05 08:27:45;;;;;;;8.20;5.00;;;;;;;-4.57;81.13;99770.30;105598;1254;75128;-25
2023/02/05 08:30:15;;;;;;;9.20;6.10;;;;;;;-4.26;80.42;99776.81;105613;1254;75323;-25
2023/02/05 08:32:48;;;;;;;11.10;7.00;;;;;;;-4.07;79.43;99779.36;105304;1260;74885;-25
2023/02/05 08:35:17;;;;;;;8.30;5.50;;;;;;;-4.04;79.14;99781.37;105259;1254;61075;-25
2023/02/05 08:37:46;;;;;;;8.30;4.60;;;;;;;-4.15;79.03;99787.41;105505;1254;61821;-25
2023/02/05 08:40:15;;;;;;;18.70;11.60;;;;;;;-4.39;79.82;99793.21;105472;1254;73141;-25
2023/02/05 08:42:44;;;;;;;7.90;5.20;;;;;;;-4.50;80.47;99797.20;105552;1253;75767;-25
2023/02/05 08:45:14;;;;;;;12.90;5.50;;;;;;;-4.35;80.45;99801.15;105610;1254;74243;-25
2023/02/05 08:47:42;;;;;;;7.70;4.90;;;;;;;-3.86;79.06;99799.34;105519;1253;61063;-25
2023/02/05 08:50:11;;;;;;;6.90;4.20;;;;;;;-3.76;77.87;99798.21;105526;1257;61735;-25
2023/02/05 08:52:43;;;;;;;7.30;4.80;;;;;;;-3.96;77.99;99803.16;105637;1254;75416;-25
2023/02/05 08:55:11;;;;;;;9.00;5.90;;;;;;;-3.99;78.31;99805.23;105634;1254;75851;-26
2023/02/05 08:57:40;;;;;;;8.00;4.40;;;;;;;-4.01;78.40;99805.92;105681;1253;74090;-25
2023/02/05 09:00:11;;;;;;;9.00;6.10;;;;;;;-4.16;79.02;99810.31;105511;1257;61128;-25
2023/02/05 09:02:41;;;;;;;13.90;8.00;;;;;;;-4.20;78.73;99815.94;105647;1253;61147;-25
2023/02/05 09:05:11;;;;;;;9.00;4.70;;;;;;;-4.19;78.78;99818.29;105528;1261;75296;-25
2023/02/05 09:07:40;;;;;;;8.20;4.80;;;;;;;-3.89;77.52;99815.48;105496;1254;75953;-25
2023/02/05 09:10:13;;;;;;;10.50;6.20;;;;;;;-3.51;76.60;99819.65;105243;1253;74149;-25
2023/02/05 09:12:41;;;;;;;12.10;8.00;;;;;;;-3.72;77.09;99818.20;105544;1254;61058;-25
2023/02/05 09:15:10;;;;;;;8.80;5.40;;;;;;;-3.80;76.58;99820.99;105504;1254;61838;-25
2023/02/05 09:17:39;;;;;;;11.30;7.50;;;;;;;-4.08;77.86;99824.48;105571;1253;75342;-25
2023/02/05 09:20:08;;;;;;;9.30;5.90;;;;;;;-4.22;78.86;99826.98;105654;1254;75825;-26
2023/02/05 09:22:37;;;;;;;8.20;5.60;;;;;;;-4.26;78.63;99827.67;105628;1254;73803;-25
2023/02/05 09:25:07;;;;;;;9.30;6.20;;;;;;;-3.73;77.13;99832.98;105699;1258;61176;-25
2023/02/05 09:27:36;;;;;;;9.60;5.80;;;;;;;-3.60;75.59;99832.50;105724;1253;61869;-25
2023/02/05 09:30:05;;;;;;;6.10;4.20;;;;;;;-3.75;76.05;99829.10;105723;1253;75326;-25
2023/02/05 09:32:33;;;;;;;7.60;4.60;;;;;;;-3.85;76.51;99829.88;105718;1254;75778;-25
2023/02/05 09:35:01;;;;;;;10.00;5.90;;;;;;;-3.89;76.99;99830.08;105695;1253;73177;-25
2023/02/05 09:37:30;;;;;;;8.50;5.70;;;;;;;-4.08;77.35;99828.05;105701;1257;61056;-25
2023/02/05 09:39:58;;;;;;;8.10;5.40;;;;;;;-4.13;77.49;99835.21;105618;1257;61765;-26
2023/02/05 09:42:53;;;;;;;9.00;5.20;;;;;;;-3.83;76.79;99832.91;105558;1253;75440;-26
2023/02/05 09:45:29;;;;;;;6.90;4.30;;;;;;;-3.57;75.35;99833.48;105736;1257;75643;-27
2023/02/05 09:48:23;;;;;;;7.80;4.60;;;;;;;-3.59;75.16;99832.66;105667;1259;74236;-25
2023/02/05 09:50:52;;;;;;;7.70;4.90;;;;;;;-3.69;75.59;99833.61;105633;1259;61351;-25
2023/02/05 09:53:20;;;;;;;7.60;5.40;;;;;;;-3.91;75.79;99834.50;105476;1253;61855;-26
2023/02/05 09:55:49;;;;;;;13.20;10.00;;;;;;;-3.88;75.82;99838.38;105582;1261;75261;-25
2023/02/05 09:58:22;;;;;;;7.50;5.30;;;;;;;-3.93;76.19;99842.33;105525;1254;75803;-25
2023/02/05 10:00:58;;;;;;;6.60;4.50;;;;;;;-3.92;77.02;99839.27;105416;1254;73175;-26
2023/02/05 10:03:31;;;;;;;17.20;9.30;;;;;;;-3.55;75.71;99841.79;105484;1260;61163;-26
2023/02/05 10:06:37;;;;;;;16.10;9.30;;;;;;;-3.46;75.27;99843.54;105645;1253;62181;-24
2023/02/05 10:09:40;;;;;;;24.90;15.90;;;;;;;-3.51;75.10;99843.95;105664;1253;73309;-24
2023/02/05 10:12:12;;;;;;;9.80;6.40;;;;;;;-3.77;75.63;99842.51;105510;1254;75664;-26
2023/02/05 10:14:50;;;;;;;13.20;7.90;;;;;;;-3.89;76.16;99839.75;105527;1254;74663;-26
2023/02/05 10:17:28;;;;;;;24.00;14.40;;;;;;;-4.11;76.48;99836.21;105511;1253;61163;-26
2023/02/05 10:20:15;;;;;;;10.30;5.60;;;;;;;-3.98;76.70;99838.98;105488;1253;61938;-26
2023/02/05 10:23:15;;;;;;;9.20;5.00;;;;;;;-3.68;75.60;99842.09;105651;1253;75405;-27
2023/02/05 10:25:49;;;;;;;12.20;7.00;;;;;;;-3.45;75.62;99847.09;105580;1254;75851;-24
2023/02/05 10:28:39;;;;;;;7.30;5.00;;;;;;;-3.57;75.57;99849.27;105569;1253;73167;-24
2023/02/05 10:31:17;;;;;;;11.60;6.70;;;;;;;-3.68;76.33;99850.39;105717;1255;61176;-26
2023/02/05 10:33:54;;;;;;;10.80;6.40;;;;;;;-3.72;76.85;99854.35;105564;1258;61805;-26
2023/02/05 10:36:25;;;;;;;7.20;3.90;;;;;;;-3.85;77.45;99852.45;105499;1259;73132;-26
2023/02/05 10:38:55;;;;;;;18.40;9.10;;;;;;;-3.80;77.57;99856.13;105289;1261;74579;-25
2023/02/05 10:41:54;;;;;;;8.70;5.70;;;;;;;-3.45;76.56;99854.58;105565;1253;73635;-27
2023/02/05 10:44:31;;;;;;;7.90;5.70;;;;;;;-3.47;75.77;99847.80;105640;1257;61768;-24
2023/02/05 10:47:35;;;;;;;8.70;5.70;;;;;;;-3.46;75.79;99850.00;105579;1253;61172;-24
2023/02/05 10:50:19;;;;;;;12.10;5.30;;;;;;;-3.79;76.79;99850.33;105611;1253;75308;-24
2023/02/05 10:52:47;;;;;;;;;;;;;;;-3.78;77.33;99857.11;105649;1253;75041;-24
2023/02/05 10:55:16;;;;;;;10.50;5.90;;;;;;;-3.84;77.81;99858.52;105548;1253;74242;-24
2023/02/05 10:57:45;;;;;;;8.90;4.80;;;;;;;-3.68;77.29;99855.66;105484;1255;62528;-24
2023/02/05 11:00:16;;;;;;;9.20;5.40;;;;;;;-3.30;76.30;99853.56;105497;1259;61634;-27
2023/02/05 11:02:48;;;;;;;7.30;4.40;;;;;;;-3.20;75.55;99856.84;105513;1253;75433;-26
2023/02/05 11:05:36;;;;;;;8.00;5.60;;;;;;;-3.32;76.11;99856.30;105402;1254;75817;-26
2023/02/05 11:08:05;;;;;;;9.60;5.90;;;;;;;-3.30;76.15;99860.35;105573;1254;74107;-26
2023/02/05 11:10:34;;;;;;;11.90;6.60;;;;;;;-3.42;76.91;99858.95;105299;1253;61079;-27
2023/02/05 11:13:13;;;;;;;10.70;6.90;;;;;;;-3.62;76.87;99860.18;105367;1261;61862;-26
2023/02/05 11:23:25;;;;;;;9.90;6.70;;;;;;;-3.14;75.78;99868.98;102713;1289;600123;-25
2023/02/05 11:25:55;;;;;;;11.30;7.50;;;;;;;-3.26;76.12;99874.56;105132;1269;61143;-26
2023/02/05 11:28:30;;;;;;;13.20;8.80;;;;;;;-3.36;76.74;99875.19;105145;1269;61142;-26
2023/02/05 11:31:24;;;;;;;11.20;6.90;;;;;;;-3.30;76.80;99878.02;104794;1270;71823;-26
2023/02/05 11:34:14;;;;;;;7.80;5.30;;;;;;;-3.57;77.12;99878.30;104775;1269;74949;-26
2023/02/05 11:37:01;;;;;;;8.30;4.60;;;;;;;-3.36;76.82;99875.86;103565;1263;1782929;-26
2023/02/05 11:39:39;;;;;;;13.20;6.20;;;;;;;-3.21;76.33;99876.90;104859;1264;61161;-26
2023/02/05 11:42:22;;;;;;;8.60;5.40;;;;;;;-3.30;77.23;99874.79;105123;1269;61224;-26
2023/02/05 11:44:55;;;;;;;19.60;11.60;;;;;;;-3.55;77.68;99871.15;104895;1269;73905;-26
2023/02/05 11:47:27;;;;;;;15.10;10.80;;;;;;;-3.47;77.62;99870.89;104882;1264;75770;-26
2023/02/05 11:49:56;;;;;;;10.40;6.20;;;;;;;-3.69;77.90;99868.23;104809;1267;72880;-26
2023/02/05 11:52:33;;;;;;;7.60;4.90;;;;;;;-3.66;78.68;99863.46;105033;1267;62755;-26
2023/02/05 11:55:02;;;;;;;17.30;11.50;;;;;;;-3.39;77.55;99864.52;104895;1267;61052;-26
2023/02/05 11:57:37;;;;;;;11.00;6.70;;;;;;;-3.11;76.59;99862.34;105147;1269;74531;-26